createdAt,value
2023-02-13T11:22:32.704Z,7.99
2023-02-13T11:25:04.303Z,8.04
2023-02-13T11:27:35.575Z,8.05
2023-02-13T11:30:07.514Z,8.04
2023-02-13T11:32:36.372Z,8.08
2023-02-13T11:35:28.612Z,8.09
2023-02-13T11:38:24.161Z,8.07
2023-02-13T11:40:54.948Z,8.06
2023-02-13T11:43:29.795Z,7.96
2023-02-13T11:46:07.146Z,8.02
2023-02-13T11:48:35.950Z,7.94
2023-02-13T11:51:05.615Z,7.95
2023-02-13T11:53:39.359Z,8.02
2023-02-13T11:56:11.523Z,8.01
2023-02-13T11:58:39.962Z,8.02
2023-02-13T12:01:24.563Z,8.08
2023-02-13T12:04:07.574Z,8.03
2023-02-13T12:06:40.816Z,8.09
2023-02-13T12:09:16.658Z,8.11
2023-02-13T12:11:48.381Z,8.05
2023-02-13T12:14:20.981Z,7.96
2023-02-13T12:16:52.103Z,8.02
2023-02-13T12:19:25.431Z,7.96
2023-02-13T12:22:10.558Z,7.94
2023-02-13T12:25:14.277Z,7.99
2023-02-13T12:27:52.275Z,7.97
2023-02-13T12:30:48.185Z,8.03
2023-02-13T12:33:27.009Z,7.82
2023-02-13T12:36:03.298Z,7.86
2023-02-13T12:38:48.144Z,7.84
2023-02-13T12:41:21.303Z,8.02
2023-02-13T12:44:13.538Z,8.03
2023-02-13T12:46:53.875Z,7.99
2023-02-13T12:49:40.227Z,8.01
2023-02-13T12:52:27.207Z,7.90
2023-02-13T12:55:06.979Z,7.90
2023-02-13T12:57:52.933Z,7.90
2023-02-13T13:00:35.693Z,7.97
2023-02-13T13:03:23.805Z,8.05
2023-02-13T13:06:12.800Z,8.00
2023-02-13T13:09:11.154Z,7.99
2023-02-13T13:11:57.866Z,8.11
2023-02-13T13:14:39.693Z,8.11
2023-02-13T13:17:17.817Z,8.17
2023-02-13T13:19:53.362Z,8.08
2023-02-13T13:22:30.547Z,7.98
2023-02-13T13:25:07.245Z,8.10
2023-02-13T13:27:44.294Z,8.07
2023-02-13T13:30:21.971Z,8.02
2023-02-13T13:32:56.190Z,8.02
2023-02-13T13:35:26.884Z,7.89
2023-02-13T13:38:03.491Z,7.82
2023-02-13T13:40:42.314Z,7.85
2023-02-13T13:43:21.615Z,7.86
2023-02-13T13:45:58.888Z,7.89
2023-02-13T13:49:01.387Z,7.92
2023-02-13T13:51:30.824Z,7.86
2023-02-13T13:54:23.676Z,7.91
2023-02-13T13:57:13.106Z,7.85
2023-02-13T14:00:23.510Z,7.78
2023-02-13T14:03:08.266Z,7.70
2023-02-13T14:06:04.794Z,7.74
2023-02-13T14:09:01.009Z,7.72
2023-02-13T14:11:47.347Z,7.70
2023-02-13T14:14:49.223Z,7.70
2023-02-13T14:17:18.073Z,7.73
2023-02-13T14:19:53.769Z,7.69
2023-02-13T14:22:34.012Z,7.73
2023-02-13T14:25:06.381Z,7.65
2023-02-13T14:27:37.331Z,7.75
2023-02-13T14:30:09.091Z,7.61
2023-02-13T14:32:41.066Z,7.64
2023-02-13T14:35:21.081Z,7.64
2023-02-13T14:37:52.157Z,7.67
2023-02-13T14:40:33.512Z,7.64
2023-02-13T14:43:35.454Z,7.61
2023-02-13T14:46:19.090Z,7.66
2023-02-13T14:48:53.770Z,7.57
2023-02-13T14:51:29.737Z,7.62
2023-02-13T14:54:04.594Z,7.57
2023-02-13T14:56:33.780Z,7.50
2023-02-13T14:59:10.987Z,7.50
2023-02-13T15:01:46.414Z,7.51
2023-02-13T15:04:18.159Z,7.45
2023-02-13T15:06:49.577Z,7.41
2023-02-13T15:09:28.027Z,7.31
2023-02-13T15:11:57.897Z,7.34
2023-02-13T15:14:32.271Z,7.36
2023-02-13T15:17:07.168Z,7.31
2023-02-13T15:19:39.249Z,7.34
2023-02-13T15:22:09.069Z,7.31
2023-02-13T15:24:45.950Z,7.32
2023-02-13T15:27:20.920Z,7.27
2023-02-13T15:29:57.393Z,7.26
2023-02-13T15:32:30.462Z,7.23
2023-02-13T15:34:58.445Z,7.23
2023-02-13T21:34:11.270Z,5.83
2023-02-13T21:36:40.219Z,5.86
2023-02-13T21:39:09.992Z,5.85
2023-02-13T21:41:40.156Z,5.86
2023-02-13T21:44:11.491Z,5.90
2023-02-13T21:46:39.377Z,5.90
2023-02-13T21:49:08.683Z,5.87
2023-02-13T21:51:38.732Z,5.79
2023-02-13T21:54:07.724Z,5.87
2023-02-13T21:56:37.936Z,5.84
2023-02-13T21:59:07.140Z,5.81
2023-02-13T22:01:38.226Z,5.83
2023-02-13T22:04:08.229Z,5.84
2023-02-13T22:06:40.702Z,5.81
2023-02-13T22:09:10.490Z,5.83
2023-02-13T22:11:39.100Z,5.81
2023-02-13T22:14:08.773Z,5.87
2023-02-13T22:16:39.925Z,5.83
